Time;durP1;ratioP1;P1;durP2;ratioP2;P2;SDS_P1;SDS_P2;PMS_P1;PMS_P2;Temp;Humidity;BMP_temperature;BMP_pressure;BME280_temperature;BME280_humidity;BME280_pressure;Samples;Min_cycle;Max_cycle;Signal;HPM_P1;HPM_P2
2023/05/25 00:01:53;;;;;;;9.80;3.83;;;;;;;10.28;100.00;101071.34;5126164;28;20047;-85
2023/05/25 00:04:33;;;;;;;9.07;4.28;;;;;;;10.25;100.00;101071.47;5126383;28;20043;-85
2023/05/25 00:07:03;;;;;;;10.75;4.47;;;;;;;10.30;100.00;101089.84;5130212;28;20046;-86
2023/05/25 00:09:30;;;;;;;8.85;4.35;;;;;;;10.39;100.00;101097.47;5128356;28;20425;-85
2023/05/25 00:12:05;;;;;;;10.05;4.05;;;;;;;10.32;100.00;101091.53;5128830;28;20044;-86
2023/05/25 00:14:32;;;;;;;13.20;4.88;;;;;;;10.22;100.00;101079.53;5123737;28;20585;-87
2023/05/25 00:17:02;;;;;;;9.63;4.30;;;;;;;10.27;100.00;101082.00;5125484;28;20131;-87
2023/05/25 00:19:44;;;;;;;11.13;4.90;;;;;;;10.14;100.00;101071.81;5132098;28;20039;-88
2023/05/25 00:22:11;;;;;;;9.30;4.55;;;;;;;9.97;100.00;101045.06;5115032;28;20039;-89
2023/05/25 00:24:39;;;;;;;10.50;5.18;;;;;;;10.10;100.00;101074.59;5124627;28;20040;-88
2023/05/25 00:27:08;;;;;;;12.75;4.78;;;;;;;10.02;100.00;101074.00;5127314;28;20051;-89
2023/05/25 00:29:35;;;;;;;12.05;5.03;;;;;;;9.99;100.00;101080.28;5130827;27;20118;-89
2023/05/25 00:32:02;;;;;;;11.55;5.35;;;;;;;10.01;100.00;101069.63;5135875;28;20039;-88
2023/05/25 00:34:31;;;;;;;12.77;4.90;;;;;;;10.04;100.00;101074.84;5136398;28;20135;-88
2023/05/25 00:36:58;;;;;;;14.85;5.32;;;;;;;9.92;100.00;101049.63;5136409;28;20067;-88
2023/05/25 00:39:25;;;;;;;12.57;5.43;;;;;;;9.97;100.00;101063.56;5135861;28;20055;-88
2023/05/25 00:41:53;;;;;;;14.85;5.63;;;;;;;9.98;100.00;101075.88;5114489;28;20134;-87
2023/05/25 00:44:20;;;;;;;12.20;5.20;;;;;;;9.92;100.00;101067.28;5123016;28;20043;-87
2023/05/25 00:46:49;;;;;;;12.75;5.55;;;;;;;9.89;100.00;101078.84;5126952;28;20095;-87
2023/05/25 00:49:24;;;;;;;14.30;5.90;;;;;;;9.84;100.00;101065.78;5128870;28;20035;-87
2023/05/25 00:51:51;;;;;;;13.40;5.75;;;;;;;9.80;100.00;101057.97;5126430;28;20043;-87
2023/05/25 00:54:24;;;;;;;15.77;6.03;;;;;;;9.71;100.00;101034.50;5125747;27;20051;-87
2023/05/25 00:57:01;;;;;;;16.95;5.95;;;;;;;9.75;100.00;101046.72;5138165;28;20039;-86
2023/05/25 00:59:47;;;;;;;13.68;5.93;;;;;;;9.85;100.00;101064.00;5130761;28;20052;-87
2023/05/25 01:02:16;;;;;;;14.77;6.65;;;;;;;9.64;100.00;101049.69;5130911;28;20047;-88
2023/05/25 01:04:52;;;;;;;12.57;5.90;;;;;;;9.85;100.00;101071.94;5128481;28;20073;-89
2023/05/25 01:07:27;;;;;;;16.92;6.30;;;;;;;9.86;100.00;101076.31;5128218;28;20054;-87
2023/05/25 01:10:01;;;;;;;14.38;6.53;;;;;;;9.88;100.00;101071.84;5113045;28;20046;-87
2023/05/25 01:12:37;;;;;;;19.65;6.22;;;;;;;9.74;100.00;101055.56;5128991;28;20103;-87
2023/05/25 01:15:05;;;;;;;17.77;6.85;;;;;;;9.80;100.00;101066.78;5123325;28;20040;-86
2023/05/25 01:17:37;;;;;;;16.85;6.38;;;;;;;9.82;100.00;101069.38;5106053;28;20133;-88
2023/05/25 01:20:06;;;;;;;18.17;6.32;;;;;;;9.75;100.00;101067.88;5122514;28;20052;-88
2023/05/25 01:23:00;;;;;;;16.67;6.80;;;;;;;9.78;100.00;101075.69;5123297;28;20063;-87
2023/05/25 01:25:37;;;;;;;14.18;7.18;;;;;;;9.73;100.00;101075.00;5121561;28;20048;-87
2023/05/25 01:28:16;;;;;;;15.98;6.28;;;;;;;9.71;100.00;101079.47;5124434;28;20035;-87
2023/05/25 01:30:47;;;;;;;15.25;7.60;;;;;;;9.58;100.00;101056.97;5117814;28;20138;-88
2023/05/25 01:33:17;;;;;;;15.88;6.80;;;;;;;9.64;100.00;101069.97;5105090;28;20112;-88
2023/05/25 01:35:46;;;;;;;14.23;6.68;;;;;;;9.53;100.00;101050.97;5123663;28;20047;-87
2023/05/25 01:38:13;;;;;;;16.67;7.30;;;;;;;9.70;100.00;101077.72;5129610;28;20040;-87
2023/05/25 01:40:43;;;;;;;15.68;6.82;;;;;;;9.68;100.00;101076.91;5110395;28;20064;-88
2023/05/25 01:43:11;;;;;;;16.27;7.05;;;;;;;9.66;100.00;101078.72;5122890;28;20044;-86
2023/05/25 01:45:39;;;;;;;14.77;7.17;;;;;;;9.61;100.00;101075.34;5125620;28;20027;-88
2023/05/25 01:48:23;;;;;;;14.63;6.55;;;;;;;9.62;100.00;101087.66;5106650;28;20073;-87
2023/05/25 01:54:30;;;;;;;20.10;7.47;;;;;;;9.59;100.00;101085.16;5088448;28;20054;-87
2023/05/25 01:57:00;;;;;;;15.20;7.28;;;;;;;9.47;100.00;101074.03;5121792;28;20118;-87
2023/05/25 01:59:44;;;;;;;15.45;7.40;;;;;;;9.44;100.00;101076.75;5120855;28;20051;-89
2023/05/25 02:02:19;;;;;;;14.45;6.80;;;;;;;9.44;100.00;101074.13;5121035;28;20077;-86
2023/05/25 02:04:47;;;;;;;16.92;7.40;;;;;;;9.56;100.00;101094.03;5122631;28;20103;-87
2023/05/25 02:07:17;;;;;;;;;;;;;;;9.53;100.00;101095.91;5122815;28;20043;-86
2023/05/25 02:09:44;;;;;;;16.92;7.55;;;;;;;9.48;100.00;101085.47;5123663;28;19983;-86
2023/05/25 02:12:12;;;;;;;16.85;7.30;;;;;;;9.51;100.00;101088.03;5122814;28;20047;-86
2023/05/25 02:14:40;;;;;;;16.40;7.60;;;;;;;9.35;100.00;101068.25;5122035;28;20057;-86
2023/05/25 02:17:06;;;;;;;22.58;8.00;;;;;;;9.46;100.00;101084.66;5121705;28;20039;-87
2023/05/25 02:19:35;;;;;;;17.33;8.50;;;;;;;9.44;100.00;101078.56;5121515;28;20046;-88
2023/05/25 02:22:01;;;;;;;18.63;7.75;;;;;;;9.39;100.00;101089.28;5121217;27;20036;-88
2023/05/25 02:24:28;;;;;;;15.10;7.90;;;;;;;9.34;100.00;101085.03;5125188;28;20402;-87
2023/05/25 02:26:56;;;;;;;16.27;8.25;;;;;;;9.30;100.00;101068.41;5121684;28;20043;-88
2023/05/25 02:29:24;;;;;;;18.38;8.73;;;;;;;9.33;100.00;101070.94;5123950;28;20075;-87
2023/05/25 02:31:51;;;;;;;19.65;7.85;;;;;;;9.29;100.00;101074.59;5126922;28;20052;-87
2023/05/25 02:34:19;;;;;;;16.55;7.15;;;;;;;9.30;100.00;101064.88;5124942;28;20128;-87
2023/05/25 02:36:46;;;;;;;14.52;7.28;;;;;;;9.29;100.00;101061.38;5127602;28;20047;-87
2023/05/25 02:39:14;;;;;;;16.75;8.18;;;;;;;9.25;100.00;101066.84;5126883;28;20054;-87
2023/05/25 02:41:41;;;;;;;18.63;8.80;;;;;;;9.30;100.00;101071.03;5124597;28;20475;-89
2023/05/25 02:44:09;;;;;;;13.75;7.50;;;;;;;9.29;100.00;101071.94;5105127;28;20040;-87
2023/05/25 02:46:38;;;;;;;20.02;8.55;;;;;;;9.25;100.00;101074.75;5123155;28;20035;-86
2023/05/25 02:49:05;;;;;;;16.77;8.65;;;;;;;9.27;100.00;101076.44;5131709;28;20051;-86
2023/05/25 02:51:34;;;;;;;18.98;8.18;;;;;;;9.27;100.00;101071.16;5130429;28;20039;-88
2023/05/25 02:54:01;;;;;;;19.20;8.25;;;;;;;9.14;100.00;101057.44;5130952;28;20039;-86
2023/05/25 02:56:34;;;;;;;17.70;9.02;;;;;;;9.14;100.00;101059.22;5131815;28;20058;-85
2023/05/25 02:59:02;;;;;;;23.27;8.95;;;;;;;9.25;100.00;101069.47;5141666;27;20073;-85
2023/05/25 03:01:30;;;;;;;18.40;8.20;;;;;;;9.18;100.00;101068.78;5141500;27;20040;-85
2023/05/25 03:03:57;;;;;;;16.30;8.00;;;;;;;9.12;100.00;101055.78;5119959;28;20043;-86
2023/05/25 03:06:25;;;;;;;19.27;8.60;;;;;;;9.08;100.00;101056.78;5128213;28;20039;-86
2023/05/25 03:08:53;;;;;;;18.13;8.80;;;;;;;9.18;100.00;101075.84;5130291;28;20047;-86
2023/05/25 03:11:19;;;;;;;19.00;8.60;;;;;;;9.11;100.00;101069.91;5131303;28;20048;-86
2023/05/25 03:13:46;;;;;;;21.73;9.38;;;;;;;9.03;100.00;101070.13;5125539;28;20093;-86
2023/05/25 03:16:14;;;;;;;17.77;8.25;;;;;;;9.05;100.00;101070.06;5125913;28;20047;-86
2023/05/25 03:18:40;;;;;;;17.60;8.38;;;;;;;9.03;100.00;101071.88;5125603;28;20042;-85
2023/05/25 03:21:08;;;;;;;23.10;9.23;;;;;;;9.05;100.00;101064.78;5107710;28;20043;-86
2023/05/25 03:23:37;;;;;;;22.23;9.80;;;;;;;9.04;100.00;101079.78;5125313;28;20543;-85
2023/05/25 03:26:04;;;;;;;18.25;8.93;;;;;;;9.03;100.00;101083.31;5124606;28;20158;-87
2023/05/25 03:28:33;;;;;;;20.55;9.05;;;;;;;8.86;100.00;101074.16;5125665;28;20043;-88
2023/05/25 03:31:00;;;;;;;19.25;8.77;;;;;;;8.97;100.00;101093.22;5132511;28;20054;-88
2023/05/25 03:33:29;;;;;;;19.35;8.90;;;;;;;8.97;100.00;101087.94;5137276;28;20059;-88
2023/05/25 03:35:56;;;;;;;19.23;9.15;;;;;;;8.95;100.00;101068.63;5123215;28;20468;-88
2023/05/25 03:38:22;;;;;;;18.30;8.95;;;;;;;9.00;100.00;101093.09;5104392;28;20074;-88
2023/05/25 03:40:50;;;;;;;15.43;8.82;;;;;;;8.97;100.00;101087.94;5108196;28;20039;-87
2023/05/25 03:43:16;;;;;;;20.73;9.93;;;;;;;8.82;100.00;101069.88;5105059;28;20054;-87
2023/05/25 03:45:45;;;;;;;17.73;9.05;;;;;;;8.92;100.00;101087.19;5102500;28;20131;-89
2023/05/25 03:48:12;;;;;;;25.17;9.65;;;;;;;8.95;100.00;101095.03;5102519;28;20105;-89
2023/05/25 03:50:39;;;;;;;23.73;9.98;;;;;;;8.95;100.00;101090.63;5103545;28;20066;-88
2023/05/25 03:53:08;;;;;;;18.17;8.68;;;;;;;8.93;100.00;101088.94;5104738;28;20044;-87
2023/05/25 03:55:50;;;;;;;18.08;8.80;;;;;;;9.02;100.00;101099.22;5108783;28;20100;-86
2023/05/25 03:58:19;;;;;;;20.90;10.50;;;;;;;8.95;100.00;101081.84;5109805;28;20055;-86
2023/05/25 04:00:48;;;;;;;26.25;9.57;;;;;;;8.94;100.00;101074.81;5111938;28;20487;-86
2023/05/25 04:03:15;;;;;;;27.33;8.90;;;;;;;9.06;100.00;101101.72;5112869;28;20391;-85
2023/05/25 04:05:45;;;;;;;23.85;9.18;;;;;;;8.87;100.00;101070.59;5108627;28;20071;-85
2023/05/25 04:08:18;;;;;;;24.60;9.45;;;;;;;9.11;100.00;101117.47;5110747;28;20072;-85
2023/05/25 04:10:45;;;;;;;24.25;9.95;;;;;;;9.12;100.00;101108.63;5109342;28;20032;-86
2023/05/25 04:13:14;;;;;;;22.80;9.52;;;;;;;9.07;100.00;101106.09;5108350;28;20040;-85
2023/05/25 04:15:49;;;;;;;18.20;9.52;;;;;;;9.21;100.00;101113.63;5106926;28;20066;-87
2023/05/25 04:18:19;;;;;;;16.73;9.02;;;;;;;9.25;100.00;101106.47;5103220;28;20116;-86
2023/05/25 04:21:00;;;;;;;16.40;8.55;;;;;;;9.32;100.00;101108.88;5103633;28;20048;-86
2023/05/25 04:23:39;;;;;;;17.67;9.18;;;;;;;9.34;100.00;101114.97;5105791;28;20052;-86
2023/05/25 04:26:09;;;;;;;19.35;9.65;;;;;;;9.45;100.00;101122.56;5102798;28;20135;-85
2023/05/25 04:28:56;;;;;;;17.40;9.15;;;;;;;9.47;100.00;101128.69;5103230;28;20048;-86
2023/05/25 04:31:25;;;;;;;;;;;;;;;9.53;100.00;101140.84;5103204;28;20067;-86
2023/05/25 04:33:54;;;;;;;17.63;8.98;;;;;;;9.57;100.00;101138.06;5100898;28;20334;-85
2023/05/25 04:36:26;;;;;;;20.35;8.63;;;;;;;9.47;100.00;101115.47;5100556;28;20036;-86
2023/05/25 04:38:53;;;;;;;18.90;8.75;;;;;;;9.56;100.00;101133.69;5101493;28;20135;-86
2023/05/25 04:41:20;;;;;;;19.50;9.48;;;;;;;9.73;100.00;101154.34;5104710;28;20044;-85
2023/05/25 04:44:02;;;;;;;;;;;;;;;9.74;100.00;101151.66;5100952;28;20042;-85
2023/05/25 04:46:39;;;;;;;22.25;9.25;;;;;;;9.83;100.00;101140.75;5100804;28;20414;-85
2023/05/25 04:49:30;;;;;;;;;;;;;;;10.00;100.00;101150.78;5102111;28;20043;-85
2023/05/25 04:51:57;;;;;;;16.48;8.80;;;;;;;9.99;100.00;101141.13;5100991;28;19931;-85
2023/05/25 04:54:24;;;;;;;15.65;9.05;;;;;;;10.04;100.00;101154.22;5101115;28;20135;-87
2023/05/25 04:56:56;;;;;;;18.35;8.73;;;;;;;9.94;100.00;101145.69;5103215;28;20044;-87
2023/05/25 04:59:38;;;;;;;21.65;9.13;;;;;;;10.06;100.00;101166.50;5108869;28;20043;-86
2023/05/25 05:02:12;;;;;;;21.38;9.43;;;;;;;10.09;100.00;101163.72;5111538;28;20040;-87
2023/05/25 05:04:42;;;;;;;20.38;8.85;;;;;;;10.11;100.00;101151.31;5104522;28;20047;-87
2023/05/25 05:07:15;;;;;;;18.58;8.27;;;;;;;10.16;100.00;101159.09;5102611;28;20079;-87
2023/05/25 05:09:51;;;;;;;18.15;8.48;;;;;;;10.23;100.00;101167.75;5099194;28;20044;-86
2023/05/25 05:12:25;;;;;;;18.50;9.40;;;;;;;10.24;100.00;101166.81;5097394;28;20549;-85
2023/05/25 05:15:01;;;;;;;19.23;9.07;;;;;;;10.27;100.00;101162.28;5101235;28;20103;-85
2023/05/25 05:17:37;;;;;;;17.33;8.60;;;;;;;10.29;100.00;101159.59;5102107;28;20069;-85
2023/05/25 05:20:08;;;;;;;20.52;9.40;;;;;;;10.49;100.00;101165.94;5106348;28;20051;-85
2023/05/25 05:22:36;;;;;;;17.10;8.90;;;;;;;10.56;100.00;101169.22;5100953;28;20079;-86
2023/05/25 05:25:16;;;;;;;18.05;8.48;;;;;;;10.62;100.00;101181.41;5100866;28;20044;-87
2023/05/25 05:27:48;;;;;;;19.55;8.35;;;;;;;10.62;100.00;101168.16;5102425;28;20126;-86
2023/05/25 05:30:28;;;;;;;16.00;9.10;;;;;;;10.81;100.00;101198.38;5071780;28;20044;-86
2023/05/25 05:33:18;;;;;;;15.02;8.98;;;;;;;10.89;100.00;101188.38;5080816;28;20044;-86
2023/05/25 05:36:20;;;;;;;20.05;8.85;;;;;;;11.01;100.00;101197.69;5081674;28;20048;-86
2023/05/25 05:39:13;;;;;;;20.10;8.55;;;;;;;11.10;100.00;101192.03;5069509;28;20526;-86
2023/05/25 05:41:48;;;;;;;20.55;8.50;;;;;;;11.07;100.00;101186.84;5065172;28;20149;-86
2023/05/25 05:44:29;;;;;;;15.38;8.52;;;;;;;11.05;100.00;101178.94;4988876;28;20542;-86
2023/05/25 05:47:10;;;;;;;14.45;8.05;;;;;;;11.26;100.00;101201.16;4985171;28;20074;-87
2023/05/25 05:50:08;;;;;;;17.30;8.48;;;;;;;11.25;100.00;101186.19;5003605;28;20149;-87
2023/05/25 06:00:33;;;;;;;17.45;8.38;;;;;;;11.62;100.00;101201.56;5023936;28;20183;-85
2023/05/25 06:03:36;;;;;;;18.73;8.52;;;;;;;11.79;100.00;101207.13;5036452;28;20052;-87
2023/05/25 06:06:05;;;;;;;20.27;8.70;;;;;;;11.97;100.00;101216.13;5039413;28;20049;-85
2023/05/25 06:08:36;;;;;;;19.50;8.88;;;;;;;12.08;100.00;101205.97;5058237;28;20055;-86
2023/05/25 06:14:57;;;;;;;17.88;8.23;;;;;;;12.60;100.00;101217.06;5102659;28;20164;-85
2023/05/25 06:17:31;;;;;;;19.10;8.77;;;;;;;12.86;100.00;101218.66;5103067;28;20051;-85
2023/05/25 06:20:13;;;;;;;16.10;8.65;;;;;;;13.29;100.00;101215.84;5098795;28;20074;-87
2023/05/25 06:23:13;;;;;;;14.95;8.20;;;;;;;13.68;100.00;101206.97;5103361;28;20047;-86
2023/05/25 06:25:45;;;;;;;15.32;8.57;;;;;;;14.15;99.41;101215.34;5100981;28;20059;-87
2023/05/25 06:32:06;;;;;;;18.15;8.77;;;;;;;14.86;92.78;101226.03;5040778;28;20036;-86
2023/05/25 06:34:38;;;;;;;19.88;9.10;;;;;;;15.01;90.98;101211.88;5023584;28;20073;-85
2023/05/25 06:37:34;;;;;;;16.13;8.30;;;;;;;15.31;88.42;101214.75;5028233;28;20076;-85
2023/05/25 06:40:01;;;;;;;14.23;8.00;;;;;;;15.14;86.20;101162.28;5039022;28;20117;-86
2023/05/25 06:42:28;;;;;;;18.38;7.93;;;;;;;15.53;87.35;101211.78;5041059;28;20139;-86
2023/05/25 06:55:52;;;;;;;17.90;8.23;;;;;;;15.67;86.42;101204.78;5124594;27;20125;-87
2023/05/25 06:58:36;;;;;;;15.98;7.88;;;;;;;16.12;85.83;101222.69;5134105;28;20175;-86
2023/05/25 07:01:03;;;;;;;17.58;8.30;;;;;;;16.52;80.46;101214.19;5122548;28;20047;-86
2023/05/25 07:03:31;;;;;;;15.82;7.95;;;;;;;16.64;78.82;101205.47;5123584;28;20031;-87
2023/05/25 07:06:00;;;;;;;18.77;7.70;;;;;;;16.82;76.21;101204.38;5119775;28;20090;-87
2023/05/25 07:08:38;;;;;;;15.65;7.00;;;;;;;17.00;72.99;101219.31;5104712;28;20134;-87
2023/05/25 07:11:13;;;;;;;13.40;7.45;;;;;;;16.91;75.59;101214.53;5122131;28;20044;-87
2023/05/25 07:13:45;;;;;;;13.73;7.30;;;;;;;16.89;72.33;101212.88;5120370;28;20048;-87
2023/05/25 07:16:35;;;;;;;13.23;7.00;;;;;;;16.93;71.83;101206.41;5110096;28;20040;-88
2023/05/25 07:19:17;;;;;;;16.10;7.53;;;;;;;16.74;74.48;101183.44;5120509;28;20089;-88
2023/05/25 07:22:18;;;;;;;13.00;7.45;;;;;;;17.19;74.23;101219.91;5119593;28;20047;-87
2023/05/25 07:24:45;;;;;;;15.20;7.45;;;;;;;17.20;70.11;101207.41;5121760;28;20064;-87
2023/05/25 07:27:32;;;;;;;13.73;6.97;;;;;;;17.40;71.90;101211.53;5119631;28;20108;-87
2023/05/25 07:30:13;;;;;;;15.18;6.93;;;;;;;17.65;67.14;101208.19;5118965;28;20126;-87
2023/05/25 07:32:47;;;;;;;15.23;6.82;;;;;;;17.44;64.25;101188.97;5115861;28;20074;-87
2023/05/25 07:35:25;;;;;;;16.35;6.85;;;;;;;17.75;67.47;101194.13;5116953;28;20445;-88
2023/05/25 07:37:58;;;;;;;15.07;6.20;;;;;;;17.88;66.23;101196.88;5119342;28;20047;-88
2023/05/25 07:40:28;;;;;;;12.48;5.88;;;;;;;18.12;63.42;101195.25;5118047;28;20155;-88
2023/05/25 07:43:13;;;;;;;13.77;6.60;;;;;;;18.42;66.56;101212.94;5104796;28;20095;-87
2023/05/25 07:45:45;;;;;;;10.23;6.07;;;;;;;18.44;60.70;101208.34;5115934;28;20052;-87
2023/05/25 07:48:26;;;;;;;12.23;5.70;;;;;;;18.54;61.36;101218.38;5117197;28;20046;-86
2023/05/25 07:50:52;;;;;;;12.52;5.75;;;;;;;18.66;60.96;101216.72;5116270;28;20048;-86
2023/05/25 07:53:20;;;;;;;10.93;5.30;;;;;;;18.64;60.69;101204.38;5115791;28;20053;-86
2023/05/25 07:55:57;;;;;;;10.40;5.10;;;;;;;18.68;57.96;101193.34;5066705;28;20047;-87
2023/05/25 07:58:30;;;;;;;9.48;4.85;;;;;;;19.00;57.23;101212.59;5107936;28;20040;-87
2023/05/25 08:01:04;;;;;;;11.80;4.80;;;;;;;18.82;54.55;101212.03;5102687;28;20032;-87
2023/05/25 08:03:44;;;;;;;12.52;5.20;;;;;;;18.76;57.45;101207.06;5100932;28;20044;-86
2023/05/25 08:06:28;;;;;;;10.98;4.97;;;;;;;19.08;55.79;101207.53;5107918;28;20051;-87
2023/05/25 08:09:08;;;;;;;10.95;5.05;;;;;;;18.99;52.70;101199.28;5104866;28;20040;-89
2023/05/25 08:11:38;;;;;;;9.67;4.73;;;;;;;18.74;52.75;101203.63;5103881;28;20052;-88
2023/05/25 08:14:19;;;;;;;10.82;5.30;;;;;;;18.43;54.44;101202.13;5089830;28;20048;-87
2023/05/25 08:17:01;;;;;;;10.65;4.90;;;;;;;18.34;55.60;101204.56;5109712;28;20064;-87
2023/05/25 08:20:09;;;;;;;10.13;5.43;;;;;;;18.31;56.07;101213.66;5109322;28;20062;-88
2023/05/25 08:23:03;;;;;;;11.45;5.15;;;;;;;18.54;56.97;101204.97;5102055;28;20082;-87
2023/05/25 08:25:37;;;;;;;8.40;4.47;;;;;;;18.85;54.82;101208.28;5108537;28;20101;-87
2023/05/25 08:28:53;;;;;;;10.65;4.57;;;;;;;18.81;53.12;101213.00;5106944;28;20105;-86
2023/05/25 08:31:34;;;;;;;9.65;5.03;;;;;;;18.36;54.59;101192.78;5105645;28;20044;-88
2023/05/25 08:34:21;;;;;;;9.13;4.43;;;;;;;18.48;55.34;101220.59;5107687;28;20048;-87
2023/05/25 08:37:26;;;;;;;8.88;4.75;;;;;;;18.07;55.84;101172.41;5092791;28;20330;-87
2023/05/25 08:40:37;;;;;;;9.40;4.05;;;;;;;18.19;54.89;101215.34;5101517;28;20048;-87
2023/05/25 08:43:21;;;;;;;10.20;3.90;;;;;;;18.11;55.07;101214.13;5096271;28;20051;-88
2023/05/25 08:53:25;;;;;;;8.18;3.97;;;;;;;18.62;54.01;101217.03;5110640;28;20053;-87
2023/05/25 08:56:03;;;;;;;8.30;4.10;;;;;;;18.55;50.28;101213.88;5110684;28;20055;-87
2023/05/25 08:58:46;;;;;;;8.20;3.45;;;;;;;18.39;51.36;101205.13;5109810;28;20040;-87
2023/05/25 09:01:38;;;;;;;7.20;4.15;;;;;;;18.60;51.93;101221.63;5112562;28;20068;-85
2023/05/25 09:04:46;;;;;;;7.80;4.22;;;;;;;18.80;51.77;101208.59;5084174;28;20055;-85
2023/05/25 09:07:16;;;;;;;9.70;3.45;;;;;;;19.08;51.26;101207.53;5110775;28;20124;-87
2023/05/25 09:10:37;;;;;;;8.50;4.07;;;;;;;19.06;49.24;101198.72;5102324;28;20062;-86
2023/05/25 09:17:20;;;;;;;6.03;3.05;;;;;;;18.48;50.27;101212.56;5111963;28;20043;-86
2023/05/25 09:20:06;;;;;;;5.85;3.55;;;;;;;18.24;51.29;101217.75;5113884;28;20103;-87
2023/05/25 09:23:26;;;;;;;7.53;4.40;;;;;;;18.20;53.54;101218.91;5103126;28;20044;-86
2023/05/25 09:30:00;;;;;;;6.90;4.65;;;;;;;17.99;54.01;101212.25;5087834;28;20054;-87
2023/05/25 09:32:53;;;;;;;7.97;4.00;;;;;;;17.93;56.27;101218.00;5065781;28;20045;-87
2023/05/25 09:46:18;;;;;;;6.82;4.10;;;;;;;17.75;54.10;101188.75;6358307;22;20096;-87
2023/05/25 09:53:26;;;;;;;6.72;3.67;;;;;;;18.11;53.75;101222.16;5653678;22;15062949;-86
2023/05/25 09:56:16;;;;;;;5.75;3.80;;;;;;;17.85;53.13;101224.72;6304775;22;20041;-87
2023/05/25 09:59:03;;;;;;;7.10;3.78;;;;;;;17.82;54.74;101232.94;6286494;22;20038;-89
2023/05/25 10:02:02;;;;;;;7.43;3.75;;;;;;;17.99;55.03;101229.19;6228464;23;20040;-88
2023/05/25 10:08:28;;;;;;;8.57;4.25;;;;;;;18.44;52.90;101202.97;6246868;23;20051;-87
2023/05/25 10:15:25;;;;;;;8.63;4.50;;;;;;;18.53;52.74;101207.75;6188439;23;20055;-87
2023/05/25 10:21:58;;;;;;;6.38;4.10;;;;;;;18.55;52.81;101222.78;6170958;23;20060;-85
2023/05/25 10:28:36;;;;;;;6.85;3.47;;;;;;;18.52;50.74;101173.84;6189819;23;20012;-86
2023/05/25 10:31:22;;;;;;;10.48;3.78;;;;;;;18.62;50.52;101195.56;6159832;23;20025;-86
2023/05/25 10:33:59;;;;;;;6.47;3.90;;;;;;;18.63;50.37;101198.16;6157618;23;20068;-87
2023/05/25 10:36:41;;;;;;;7.35;3.70;;;;;;;18.69;50.13;101170.03;6135191;23;20037;-88
2023/05/25 10:39:43;;;;;;;6.43;3.60;;;;;;;19.13;47.75;101216.13;6072525;23;20030;-88
2023/05/25 10:59:26;;;;;;;10.48;4.00;;;;;;;19.33;47.49;101204.00;6254316;22;20070;-86
2023/05/25 11:02:05;;;;;;;8.60;4.38;;;;;;;19.39;47.25;101197.31;6287410;22;20055;-86
2023/05/25 11:04:38;;;;;;;6.88;3.60;;;;;;;19.33;47.87;101184.34;6272086;22;20004;-86
2023/05/25 11:15:14;;;;;;;6.53;3.63;;;;;;;19.66;45.68;101184.66;6274152;22;20043;-88
2023/05/25 11:18:00;;;;;;;5.28;3.13;;;;;;;19.68;45.20;101204.19;6247475;23;20026;-87
2023/05/25 11:20:52;;;;;;;6.38;3.72;;;;;;;19.64;46.57;101205.41;6269252;23;20019;-86
2023/05/25 11:24:02;;;;;;;8.00;3.50;;;;;;;19.81;46.96;101191.59;6263995;23;20016;-88
2023/05/25 11:27:05;;;;;;;7.30;3.90;;;;;;;19.87;45.25;101193.81;6264079;23;20091;-86
2023/05/25 11:29:46;;;;;;;5.50;3.15;;;;;;;19.69;45.20;101145.94;6244444;23;20047;-87
2023/05/25 11:32:31;;;;;;;7.05;3.85;;;;;;;19.78;44.22;101180.22;6193156;23;20023;-87
2023/05/25 11:35:16;;;;;;;6.65;3.40;;;;;;;19.80;44.45;101184.50;6239239;23;20016;-86
2023/05/25 11:38:01;;;;;;;7.05;3.85;;;;;;;19.73;45.78;101174.31;6263705;23;20077;-88
2023/05/25 11:40:56;;;;;;;8.00;3.50;;;;;;;19.61;45.17;101152.75;6258949;23;20064;-87
2023/05/25 11:43:34;;;;;;;5.13;3.67;;;;;;;19.81;45.20;101172.78;6262810;23;20039;-86
2023/05/25 11:46:23;;;;;;;8.48;4.03;;;;;;;19.86;46.13;101164.38;6223289;23;20038;-87
2023/05/25 11:48:55;;;;;;;4.30;3.55;;;;;;;19.95;46.53;101172.63;6234595;23;20010;-87
2023/05/25 11:52:09;;;;;;;6.93;3.60;;;;;;;20.11;46.41;101169.66;6261768;23;20012;-87
2023/05/25 11:59:20;;;;;;;8.98;4.10;;;;;;;20.15;45.96;101167.59;6200812;23;20102;-87
2023/05/25 12:02:11;;;;;;;9.40;4.07;;;;;;;20.03;46.17;101163.13;6237482;23;20447;-87
2023/05/25 12:05:01;;;;;;;7.70;3.97;;;;;;;20.02;46.30;101174.84;6208567;23;20012;-86
2023/05/25 12:08:36;;;;;;;5.40;3.70;;;;;;;20.21;46.45;101159.94;6243492;23;20027;-85
2023/05/25 12:12:22;;;;;;;8.32;3.80;;;;;;;20.33;45.60;101164.38;6264684;23;20020;-87
2023/05/25 12:15:04;;;;;;;9.07;4.35;;;;;;;20.48;45.56;101159.69;6242657;23;20372;-87
2023/05/25 12:17:46;;;;;;;8.05;3.92;;;;;;;20.49;46.44;101157.88;6241016;23;20080;-86
2023/05/25 12:20:29;;;;;;;8.85;3.90;;;;;;;20.57;46.50;101144.69;6238751;23;20465;-88
2023/05/25 12:23:11;;;;;;;9.05;4.53;;;;;;;20.74;45.60;101157.72;6262968;23;20068;-86
2023/05/25 12:25:43;;;;;;;7.18;3.72;;;;;;;20.66;45.74;101117.91;6240107;23;20050;-87
2023/05/25 12:28:25;;;;;;;6.80;3.72;;;;;;;20.89;45.69;101137.69;6217658;23;20016;-87
2023/05/25 12:31:18;;;;;;;6.63;3.80;;;;;;;21.03;45.61;101125.81;6263293;23;20047;-88
2023/05/25 12:34:16;;;;;;;8.48;4.05;;;;;;;21.06;44.69;101114.81;6242055;23;20099;-87
2023/05/25 12:41:06;;;;;;;8.30;4.30;;;;;;;21.08;45.89;101131.72;6258739;22;20074;-87
2023/05/25 12:43:58;;;;;;;6.25;3.97;;;;;;;21.07;45.34;101129.13;6263729;23;20026;-89
2023/05/25 12:50:28;;;;;;;7.13;3.90;;;;;;;21.21;45.23;101128.91;6267207;23;20080;-87
2023/05/25 12:56:57;;;;;;;8.30;3.88;;;;;;;21.13;44.84;101126.78;6261949;23;20020;-87
2023/05/25 13:07:58;;;;;;;7.80;4.90;;;;;;;21.24;44.16;101126.84;6177105;23;20074;-87
2023/05/25 13:10:31;;;;;;;8.15;4.40;;;;;;;21.00;44.59;101101.81;6210053;23;20020;-86
2023/05/25 13:13:55;;;;;;;8.50;3.80;;;;;;;21.22;45.65;101115.34;6236319;23;20086;-88
2023/05/25 13:16:44;;;;;;;8.40;4.38;;;;;;;21.46;45.81;101117.88;6231720;23;20023;-87
2023/05/25 13:19:29;;;;;;;9.07;5.13;;;;;;;21.45;44.46;101078.44;6230607;23;20013;-87
2023/05/25 13:25:43;;;;;;;6.95;4.50;;;;;;;21.40;43.80;101090.59;6183017;23;20059;-88
2023/05/25 13:28:18;;;;;;;9.00;4.20;;;;;;;21.45;44.26;101121.53;6233779;23;20024;-87
2023/05/25 13:31:14;;;;;;;8.57;4.75;;;;;;;21.33;44.45;101101.00;6214509;23;20020;-87
2023/05/25 13:34:04;;;;;;;10.25;4.35;;;;;;;21.58;45.53;101110.63;6231419;22;20017;-88
2023/05/25 13:36:34;;;;;;;8.97;4.67;;;;;;;21.75;44.90;101104.69;6229105;23;20020;-87
2023/05/25 13:39:04;;;;;;;9.07;4.67;;;;;;;21.84;43.75;101112.06;6207190;23;20092;-88
2023/05/25 13:41:52;;;;;;;7.50;4.68;;;;;;;21.88;43.63;101101.88;6132416;23;20086;-88
2023/05/25 13:44:33;;;;;;;7.50;4.70;;;;;;;21.88;43.62;101112.66;6066036;23;20156;-86
2023/05/25 13:47:13;;;;;;;6.65;4.13;;;;;;;21.82;44.32;101105.94;6069490;23;20014;-88
2023/05/25 13:49:54;;;;;;;;;;;;;;;21.96;44.09;101100.25;6061509;23;20078;-87
2023/05/25 13:52:28;;;;;;;8.07;4.20;;;;;;;22.00;43.45;101090.09;6081723;23;19902;-87
2023/05/25 13:58:48;;;;;;;9.38;4.63;;;;;;;22.23;43.16;101099.78;6081129;23;20033;-87
2023/05/25 14:01:15;;;;;;;9.02;4.75;;;;;;;21.98;42.92;101079.41;6074719;23;20014;-87
2023/05/25 14:04:22;;;;;;;8.82;4.63;;;;;;;21.84;42.85;101074.31;5095226;27;1931702;-87
2023/05/25 14:06:50;;;;;;;10.53;4.90;;;;;;;21.89;42.92;101107.13;5125532;28;20130;-87
2023/05/25 14:09:20;;;;;;;9.65;4.88;;;;;;;21.77;44.03;101074.94;5127711;28;20491;-87
2023/05/25 14:11:51;;;;;;;10.02;5.25;;;;;;;21.84;42.44;101082.41;5128512;28;20145;-88
2023/05/25 14:14:24;;;;;;;8.80;4.63;;;;;;;21.88;43.53;101097.31;5116071;28;20069;-87
2023/05/25 14:17:05;;;;;;;8.68;5.00;;;;;;;21.94;43.68;101102.19;5117478;28;20039;-87
2023/05/25 14:19:48;;;;;;;10.68;4.60;;;;;;;21.92;43.38;101092.53;5082308;28;20051;-87
2023/05/25 14:22:15;;;;;;;10.73;5.40;;;;;;;22.01;43.51;101089.97;5119959;28;20063;-86